Time;durP1;ratioP1;P1;durP2;ratioP2;P2;SDS_P1;SDS_P2;PMS_P1;PMS_P2;Temp;Humidity;BMP_temperature;BMP_pressure;BME280_temperature;BME280_humidity;BME280_pressure;Samples;Min_cycle;Max_cycle;Signal;HPM_P1;HPM_P2
2024/02/02 00:01:51;;;;;;;14.43;5.83;;;4.00;99.90;;;;;;5060179;28;21297;-70
2024/02/02 00:04:19;;;;;;;13.67;6.47;;;4.10;99.90;;;;;;5060427;28;20465;-70
2024/02/02 00:06:47;;;;;;;12.80;5.93;;;4.10;99.90;;;;;;5061740;28;20480;-70
2024/02/02 00:09:16;;;;;;;12.77;6.37;;;4.20;99.90;;;;;;5062829;28;21196;-71
2024/02/02 00:11:44;;;;;;;14.63;6.37;;;4.20;99.90;;;;;;5062676;28;20439;-70
2024/02/02 00:14:13;;;;;;;11.60;4.53;;;4.10;99.90;;;;;;5062976;28;20489;-71
2024/02/02 00:16:42;;;;;;;14.53;5.53;;;4.00;99.90;;;;;;5062766;28;20451;-71
2024/02/02 00:19:10;;;;;;;12.10;5.43;;;4.00;99.90;;;;;;5063472;28;20466;-70
2024/02/02 00:21:38;;;;;;;13.77;5.30;;;4.00;99.90;;;;;;5062014;28;21046;-70
2024/02/02 00:24:06;;;;;;;15.27;4.93;;;4.00;99.90;;;;;;5061959;28;20936;-70
2024/02/02 00:26:35;;;;;;;11.37;4.70;;;3.90;99.90;;;;;;5060196;28;20460;-70
2024/02/02 00:29:03;;;;;;;17.03;5.30;;;4.00;99.90;;;;;;5065082;28;20461;-69
2024/02/02 00:31:32;;;;;;;15.20;6.40;;;3.90;99.90;;;;;;5064861;28;20447;-68
2024/02/02 00:34:00;;;;;;;13.30;5.57;;;3.90;99.90;;;;;;5064801;28;20439;-69
2024/02/02 00:36:28;;;;;;;15.10;5.63;;;3.80;99.90;;;;;;5065468;28;20440;-68
2024/02/02 00:38:56;;;;;;;11.53;4.30;;;3.70;99.90;;;;;;5066140;28;20483;-69
2024/02/02 00:41:24;;;;;;;15.77;5.73;;;3.60;99.90;;;;;;5064872;28;20482;-69
2024/02/02 00:43:52;;;;;;;12.90;5.00;;;3.50;99.90;;;;;;5065479;28;20449;-69
2024/02/02 00:46:20;;;;;;;13.63;4.90;;;3.50;99.90;;;;;;5065725;28;20451;-70
2024/02/02 00:48:50;;;;;;;13.47;4.90;;;3.40;99.90;;;;;;5065986;28;21114;-69
2024/02/02 00:51:18;;;;;;;12.07;4.77;;;3.30;99.90;;;;;;5062947;28;21036;-69
2024/02/02 00:53:47;;;;;;;15.73;5.93;;;3.30;99.90;;;;;;5066657;28;20457;-69
2024/02/02 00:56:17;;;;;;;13.90;5.50;;;3.30;99.90;;;;;;5066197;28;20458;-69
2024/02/02 00:58:45;;;;;;;13.60;4.87;;;3.50;99.90;;;;;;5066072;28;20481;-69
2024/02/02 01:01:13;;;;;;;15.00;5.07;;;3.60;99.90;;;;;;5064686;28;20485;-69
2024/02/02 01:03:41;;;;;;;11.83;5.10;;;3.60;99.90;;;;;;5065420;28;20450;-69
2024/02/02 01:06:11;;;;;;;16.67;5.67;;;3.50;99.90;;;;;;5065283;28;20447;-68
2024/02/02 01:08:39;;;;;;;14.47;4.60;;;3.50;99.90;;;;;;5066069;28;20451;-70
2024/02/02 01:11:08;;;;;;;14.53;4.80;;;3.30;99.90;;;;;;5064821;28;20442;-69
2024/02/02 01:13:36;;;;;;;11.23;4.87;;;3.20;99.90;;;;;;5064485;28;20458;-69
2024/02/02 01:16:05;;;;;;;14.57;5.83;;;3.10;99.90;;;;;;5065050;28;20447;-70
2024/02/02 01:18:33;;;;;;;12.43;5.13;;;3.00;99.90;;;;;;5065878;28;20454;-69
2024/02/02 01:21:02;;;;;;;15.03;5.70;;;3.10;99.90;;;;;;5064134;28;20467;-69
2024/02/02 01:23:31;;;;;;;12.47;5.50;;;3.00;99.90;;;;;;5064652;28;20451;-69
2024/02/02 01:25:59;;;;;;;12.90;5.00;;;2.90;99.90;;;;;;5063942;28;20471;-69
2024/02/02 01:28:28;;;;;;;16.93;5.80;;;2.80;99.90;;;;;;5065015;28;20451;-69
2024/02/02 01:30:56;;;;;;;14.83;5.73;;;2.70;99.90;;;;;;5064885;28;20494;-68
2024/02/02 01:33:24;;;;;;;14.40;6.00;;;2.60;99.90;;;;;;5063728;28;20470;-69
2024/02/02 01:35:52;;;;;;;18.07;6.30;;;2.70;99.90;;;;;;5064890;28;20482;-69
2024/02/02 01:38:20;;;;;;;16.47;6.47;;;2.70;99.90;;;;;;5064492;28;20500;-69
2024/02/02 01:40:50;;;;;;;14.40;6.23;;;2.70;99.90;;;;;;5063829;28;20467;-69
2024/02/02 01:43:18;;;;;;;14.30;5.43;;;2.60;99.90;;;;;;5064051;28;20538;-70
2024/02/02 01:45:46;;;;;;;14.80;5.70;;;2.80;99.90;;;;;;5065111;28;20503;-70
2024/02/02 01:48:14;;;;;;;12.60;5.17;;;2.80;99.90;;;;;;5064999;28;20511;-70
2024/02/02 01:50:42;;;;;;;13.73;5.43;;;2.70;99.90;;;;;;5063973;28;20477;-69
2024/02/02 01:53:11;;;;;;;14.77;5.10;;;2.70;99.90;;;;;;5063987;28;20439;-69
2024/02/02 01:55:39;;;;;;;17.37;6.10;;;2.80;99.90;;;;;;5065457;28;20442;-68
2024/02/02 01:58:09;;;;;;;14.80;5.20;;;2.90;99.90;;;;;;5065148;28;20561;-69
2024/02/02 02:00:37;;;;;;;13.90;5.73;;;2.90;99.90;;;;;;5063532;28;20470;-68
2024/02/02 02:03:06;;;;;;;13.33;6.20;;;2.90;99.90;;;;;;5064742;28;20517;-68
2024/02/02 02:05:35;;;;;;;16.93;5.83;;;3.00;99.90;;;;;;5065337;28;20451;-69
2024/02/02 02:08:05;;;;;;;14.20;5.50;;;3.10;99.90;;;;;;5065910;28;20543;-68
2024/02/02 02:10:33;;;;;;;11.93;4.60;;;3.10;99.90;;;;;;5064792;28;20556;-69
2024/02/02 02:13:02;;;;;;;12.17;4.93;;;3.10;99.90;;;;;;5065110;28;20454;-69
2024/02/02 02:15:36;;;;;;;15.90;5.57;;;3.00;99.90;;;;;;5065838;28;20446;-69
2024/02/02 02:18:04;;;;;;;15.83;5.23;;;2.90;99.90;;;;;;5065859;28;20446;-69
2024/02/02 02:20:35;;;;;;;10.83;5.10;;;2.90;99.90;;;;;;5065008;28;20827;-68
2024/02/02 02:23:05;;;;;;;14.90;5.80;;;2.80;99.90;;;;;;5065828;28;20512;-69
2024/02/02 02:25:33;;;;;;;12.83;4.70;;;2.90;99.90;;;;;;5068376;28;20467;-68
2024/02/02 02:28:05;;;;;;;11.40;4.20;;;2.90;99.90;;;;;;5068058;28;20510;-69
2024/02/02 02:30:33;;;;;;;11.40;4.33;;;2.80;99.90;;;;;;5067102;28;20462;-69
2024/02/02 02:33:01;;;;;;;13.17;4.00;;;2.80;99.90;;;;;;5067466;28;20446;-69
2024/02/02 02:35:30;;;;;;;16.67;5.30;;;2.80;99.90;;;;;;5067736;28;20504;-69
2024/02/02 02:37:58;;;;;;;12.53;4.57;;;2.90;99.90;;;;;;5068092;28;20569;-69
2024/02/02 02:40:27;;;;;;;12.97;4.97;;;2.90;99.90;;;;;;5065802;28;20475;-69
2024/02/02 02:42:55;;;;;;;10.93;3.63;;;2.90;99.90;;;;;;5066723;28;20490;-69
2024/02/02 02:45:24;;;;;;;12.83;4.53;;;2.80;99.90;;;;;;5067824;28;20443;-68
2024/02/02 02:47:52;;;;;;;12.73;5.20;;;2.80;99.90;;;;;;5067344;28;20451;-70
2024/02/02 02:50:20;;;;;;;11.43;4.97;;;2.70;99.90;;;;;;5065090;28;20477;-67
2024/02/02 02:52:48;;;;;;;13.03;4.70;;;2.90;99.90;;;;;;5066390;28;20488;-68
2024/02/02 02:55:16;;;;;;;16.70;5.10;;;2.90;99.90;;;;;;5067540;28;20508;-68
2024/02/02 02:57:45;;;;;;;14.27;4.27;;;2.90;99.90;;;;;;5067412;28;20438;-68
2024/02/02 03:00:14;;;;;;;15.10;4.93;;;3.00;99.90;;;;;;5066584;28;20477;-69
2024/02/02 03:02:43;;;;;;;12.20;3.83;;;3.10;99.90;;;;;;5066289;28;20482;-69
2024/02/02 03:05:12;;;;;;;10.10;3.80;;;3.20;99.90;;;;;;5066939;28;20454;-68
2024/02/02 03:07:40;;;;;;;10.97;4.40;;;3.20;99.90;;;;;;5067047;28;20461;-69
2024/02/02 03:10:09;;;;;;;9.50;3.50;;;3.20;99.90;;;;;;5066404;28;20470;-69
2024/02/02 03:12:37;;;;;;;12.00;5.10;;;3.10;99.90;;;;;;5065746;28;20455;-69
2024/02/02 03:15:09;;;;;;;11.90;4.17;;;3.20;99.90;;;;;;5067436;28;20813;-68
2024/02/02 03:17:37;;;;;;;10.60;4.53;;;3.30;99.90;;;;;;5067270;28;20447;-69
2024/02/02 03:20:10;;;;;;;12.00;3.90;;;3.40;99.90;;;;;;5066216;28;21015;-69
2024/02/02 03:22:38;;;;;;;12.97;4.77;;;3.40;99.90;;;;;;5065407;28;20831;-69
2024/02/02 03:25:07;;;;;;;13.00;5.50;;;3.30;99.90;;;;;;5066816;28;20609;-69
2024/02/02 03:27:35;;;;;;;14.03;4.77;;;3.40;99.90;;;;;;5067603;28;21108;-70
2024/02/02 03:30:04;;;;;;;11.10;4.23;;;3.50;99.90;;;;;;5066912;28;20493;-69
2024/02/02 03:32:34;;;;;;;13.57;4.70;;;3.40;99.90;;;;;;5066565;28;20435;-69
2024/02/02 03:35:02;;;;;;;11.20;4.50;;;3.40;99.90;;;;;;5067685;28;20463;-68
2024/02/02 03:37:30;;;;;;;11.90;4.77;;;3.40;99.90;;;;;;5067579;28;20455;-69
2024/02/02 03:39:59;;;;;;;13.70;4.60;;;3.50;99.90;;;;;;5067325;28;20516;-68
2024/02/02 03:42:27;;;;;;;13.53;5.30;;;3.60;99.90;;;;;;5065455;28;20570;-68
2024/02/02 03:44:57;;;;;;;11.33;4.87;;;3.50;99.90;;;;;;5066282;28;20447;-69
2024/02/02 03:47:25;;;;;;;11.70;4.60;;;3.50;99.90;;;;;;5066380;28;20447;-69
2024/02/02 03:49:55;;;;;;;13.10;5.97;;;3.50;99.90;;;;;;5065713;28;20487;-69
2024/02/02 03:52:23;;;;;;;14.70;5.67;;;3.50;99.90;;;;;;5064911;28;20454;-69
2024/02/02 03:54:52;;;;;;;13.90;5.30;;;3.50;99.90;;;;;;5065632;28;20957;-68
2024/02/02 03:57:20;;;;;;;13.90;5.67;;;3.50;99.90;;;;;;5065777;28;20953;-70
2024/02/02 03:59:48;;;;;;;13.27;5.20;;;3.60;99.90;;;;;;5066233;28;20893;-69
2024/02/02 04:02:16;;;;;;;12.97;5.47;;;3.60;99.90;;;;;;5064465;28;20462;-69
2024/02/02 04:04:45;;;;;;;12.87;5.60;;;3.70;99.90;;;;;;5066000;28;20459;-69
2024/02/02 04:07:14;;;;;;;12.87;4.90;;;3.70;99.90;;;;;;5065476;28;20457;-69
2024/02/02 04:09:42;;;;;;;14.20;5.50;;;3.60;99.90;;;;;;5064809;28;20520;-69
2024/02/02 04:12:10;;;;;;;13.00;4.80;;;3.70;99.90;;;;;;5065133;28;20464;-69
2024/02/02 04:14:38;;;;;;;12.67;5.30;;;3.70;99.90;;;;;;5064933;28;20547;-69
2024/02/02 04:17:07;;;;;;;15.50;5.57;;;3.70;99.90;;;;;;5065197;28;20450;-68
2024/02/02 04:19:34;;;;;;;12.50;5.80;;;3.70;99.90;;;;;;5065495;28;20471;-69
2024/02/02 04:22:03;;;;;;;13.20;6.33;;;3.80;99.90;;;;;;5064860;28;20940;-69
2024/02/02 04:24:32;;;;;;;16.00;5.60;;;3.80;99.90;;;;;;5064428;28;20545;-68
2024/02/02 04:27:00;;;;;;;12.63;5.70;;;3.70;99.90;;;;;;5065060;28;21097;-70
2024/02/02 04:29:28;;;;;;;13.10;5.27;;;3.80;99.90;;;;;;5065182;28;20559;-69
2024/02/02 04:31:56;;;;;;;12.53;5.03;;;3.90;99.90;;;;;;5064094;28;20953;-69
2024/02/02 04:34:24;;;;;;;12.00;5.00;;;3.90;99.90;;;;;;5064184;28;20872;-69
2024/02/02 04:36:52;;;;;;;16.10;5.90;;;3.90;99.90;;;;;;5064897;28;20452;-69
2024/02/02 04:39:24;;;;;;;17.07;6.63;;;4.00;99.90;;;;;;5064693;28;20463;-68
2024/02/02 04:41:54;;;;;;;14.93;6.47;;;4.00;99.90;;;;;;5064544;28;20444;-69
2024/02/02 04:44:22;;;;;;;20.03;5.63;;;3.90;99.90;;;;;;5063383;28;20482;-69
2024/02/02 04:46:50;;;;;;;12.40;4.63;;;4.00;99.90;;;;;;5065015;28;20451;-69
2024/02/02 04:49:18;;;;;;;11.80;5.17;;;4.10;99.90;;;;;;5065351;28;20467;-69
2024/02/02 04:51:46;;;;;;;13.10;5.10;;;4.20;99.90;;;;;;5066112;28;20461;-69
2024/02/02 04:54:14;;;;;;;14.83;6.17;;;4.20;99.90;;;;;;5066662;28;20445;-69
2024/02/02 04:56:42;;;;;;;15.57;6.50;;;4.10;99.90;;;;;;5067679;28;20449;-69
2024/02/02 04:59:11;;;;;;;13.97;6.13;;;4.00;99.90;;;;;;5066021;28;20536;-69
2024/02/02 05:01:39;;;;;;;12.27;5.20;;;3.90;99.90;;;;;;5064435;28;20540;-70
2024/02/02 05:04:07;;;;;;;12.87;5.77;;;4.00;99.90;;;;;;5064075;28;20484;-68
2024/02/02 05:06:35;;;;;;;13.33;6.43;;;4.00;99.90;;;;;;5064596;28;20445;-68
2024/02/02 05:09:04;;;;;;;16.17;6.77;;;4.10;99.90;;;;;;5065049;28;20444;-68
2024/02/02 05:11:32;;;;;;;15.20;5.97;;;4.10;99.90;;;;;;5063633;28;20520;-69
2024/02/02 05:14:00;;;;;;;13.97;5.33;;;4.20;99.90;;;;;;5064596;28;20467;-69
2024/02/02 05:16:29;;;;;;;12.13;5.60;;;4.20;99.90;;;;;;5064394;28;20449;-68
2024/02/02 05:18:57;;;;;;;18.30;6.00;;;4.10;99.90;;;;;;5064675;28;20947;-69
2024/02/02 05:21:25;;;;;;;14.63;6.13;;;4.20;99.90;;;;;;5064266;28;21103;-68
2024/02/02 05:23:56;;;;;;;12.87;5.60;;;4.20;99.90;;;;;;5064644;28;20481;-69
2024/02/02 05:26:44;;;;;;;14.60;5.53;;;4.10;99.90;;;;;;5064615;28;20445;-68
2024/02/02 05:29:12;;;;;;;12.27;5.77;;;4.20;99.90;;;;;;5063714;28;20521;-70
2024/02/02 05:31:42;;;;;;;11.30;5.70;;;4.20;99.90;;;;;;5064593;28;20440;-69
2024/02/02 05:34:10;;;;;;;11.63;5.70;;;4.30;99.90;;;;;;5065424;28;20484;-69
2024/02/02 05:36:38;;;;;;;13.77;6.50;;;4.20;99.90;;;;;;5065917;28;20507;-70
2024/02/02 05:39:08;;;;;;;13.13;5.97;;;4.20;99.90;;;;;;5065571;28;21038;-69
2024/02/02 05:41:36;;;;;;;15.60;6.07;;;4.10;99.90;;;;;;5055356;28;20983;-69
2024/02/02 05:44:04;;;;;;;12.80;5.60;;;4.10;99.90;;;;;;5064937;28;21441;-69
2024/02/02 05:46:32;;;;;;;15.33;5.63;;;4.20;99.90;;;;;;5065214;28;20980;-69
2024/02/02 05:49:05;;;;;;;11.90;5.20;;;4.20;99.90;;;;;;5066033;28;20454;-68
2024/02/02 05:51:33;;;;;;;14.93;4.33;;;4.20;99.90;;;;;;5064785;28;20532;-69
2024/02/02 05:54:01;;;;;;;13.03;5.10;;;4.20;99.90;;;;;;5065181;28;20446;-69
2024/02/02 05:56:30;;;;;;;12.70;4.50;;;4.10;99.90;;;;;;5065404;28;20451;-68
2024/02/02 05:58:57;;;;;;;11.27;4.40;;;4.20;99.90;;;;;;5068338;28;20456;-69
2024/02/02 06:01:25;;;;;;;15.13;4.47;;;4.10;99.90;;;;;;5067156;28;20510;-70
2024/02/02 06:03:53;;;;;;;11.93;5.43;;;4.10;99.90;;;;;;5067866;28;20526;-68
2024/02/02 06:06:23;;;;;;;14.13;5.53;;;4.10;99.90;;;;;;5067817;28;20445;-70
2024/02/02 06:08:51;;;;;;;12.47;5.20;;;4.10;99.90;;;;;;5068204;28;20870;-71
2024/02/02 06:11:19;;;;;;;13.70;5.80;;;4.20;99.90;;;;;;5066848;28;21014;-70
2024/02/02 06:13:47;;;;;;;13.03;7.57;;;4.30;99.90;;;;;;5066835;28;20467;-70
2024/02/02 06:16:15;;;;;;;13.20;6.50;;;4.30;99.90;;;;;;5067490;28;20439;-71
2024/02/02 06:18:43;;;;;;;15.97;6.63;;;4.50;99.90;;;;;;5067462;28;20449;-70
2024/02/02 06:21:12;;;;;;;15.23;7.70;;;4.40;99.90;;;;;;5066925;28;21007;-71
2024/02/02 06:23:41;;;;;;;13.20;6.27;;;4.40;99.90;;;;;;5067161;28;20452;-71
2024/02/02 06:26:09;;;;;;;16.17;6.40;;;4.30;99.90;;;;;;5065811;28;20439;-70
2024/02/02 06:28:37;;;;;;;15.40;5.60;;;4.20;99.90;;;;;;5066208;28;20480;-70
2024/02/02 06:31:05;;;;;;;14.00;6.17;;;4.20;99.90;;;;;;5066617;28;20560;-70
2024/02/02 06:33:33;;;;;;;15.40;6.33;;;4.20;99.90;;;;;;5067814;28;20536;-70
2024/02/02 06:36:02;;;;;;;15.63;6.10;;;4.20;99.90;;;;;;5067844;28;20459;-70
2024/02/02 06:38:30;;;;;;;14.83;6.17;;;4.30;99.90;;;;;;5066451;28;21206;-71
2024/02/02 06:40:59;;;;;;;12.37;6.67;;;4.30;99.90;;;;;;5066215;28;20525;-70
2024/02/02 06:43:27;;;;;;;13.70;6.00;;;4.40;99.90;;;;;;5066634;28;20498;-69
2024/02/02 06:45:55;;;;;;;14.40;6.70;;;4.40;99.90;;;;;;5067394;28;20481;-69
2024/02/02 06:48:24;;;;;;;13.77;6.20;;;4.40;99.90;;;;;;5072722;28;20435;-71
2024/02/02 06:50:52;;;;;;;16.60;5.93;;;4.40;99.90;;;;;;5067366;28;20856;-70
2024/02/02 06:53:20;;;;;;;13.83;5.93;;;4.40;99.90;;;;;;5067158;28;20516;-71
2024/02/02 06:55:53;;;;;;;15.10;6.10;;;4.30;99.90;;;;;;5067755;28;20443;-71
2024/02/02 06:58:39;;;;;;;17.20;6.60;;;4.30;99.90;;;;;;5067357;28;20461;-70
2024/02/02 07:01:08;;;;;;;13.77;5.23;;;4.30;99.90;;;;;;5062806;28;20459;-70
2024/02/02 07:03:37;;;;;;;12.37;5.70;;;4.30;99.90;;;;;;5067800;28;20477;-70
2024/02/02 07:06:07;;;;;;;15.03;5.63;;;4.30;99.90;;;;;;5064681;28;21138;-69
2024/02/02 07:08:35;;;;;;;15.23;5.90;;;4.40;99.90;;;;;;5067118;28;20461;-70
2024/02/02 07:11:45;;;;;;;16.07;6.20;;;4.40;99.90;;;;;;5066379;28;20470;-71
2024/02/02 07:14:33;;;;;;;14.40;5.80;;;4.40;99.90;;;;;;5063771;28;20492;-70
2024/02/02 07:17:02;;;;;;;16.10;6.40;;;4.40;99.90;;;;;;5067328;28;20443;-71
2024/02/02 07:19:40;;;;;;;15.37;6.20;;;4.40;99.90;;;;;;5068213;28;20559;-70
2024/02/02 07:22:22;;;;;;;11.97;5.83;;;4.50;99.90;;;;;;5068046;28;20531;-71
2024/02/02 07:24:50;;;;;;;12.93;6.30;;;4.50;99.90;;;;;;5068460;28;20857;-70
2024/02/02 07:27:36;;;;;;;15.40;5.70;;;4.50;99.90;;;;;;5069067;28;20535;-69
2024/02/02 07:30:12;;;;;;;14.63;6.93;;;4.50;99.90;;;;;;5067910;28;20461;-70
2024/02/02 07:32:40;;;;;;;15.00;6.40;;;4.50;99.90;;;;;;5064085;28;21144;-70
2024/02/02 07:35:23;;;;;;;15.70;6.67;;;4.60;99.90;;;;;;5069009;28;20450;-71
2024/02/02 07:37:51;;;;;;;13.70;5.70;;;4.80;99.90;;;;;;5069439;28;20438;-70
2024/02/02 07:41:01;;;;;;;15.07;7.00;;;4.90;99.90;;;;;;5068935;28;20961;-70
2024/02/02 07:43:32;;;;;;;15.37;6.20;;;5.00;99.90;;;;;;5066820;28;20444;-71
2024/02/02 07:46:02;;;;;;;16.77;6.53;;;5.00;99.90;;;;;;5068240;28;20476;-70
2024/02/02 07:48:37;;;;;;;15.27;6.97;;;5.00;99.90;;;;;;5068208;28;21198;-69
2024/02/02 07:51:06;;;;;;;12.47;5.90;;;5.10;99.90;;;;;;5066296;28;20476;-70
2024/02/02 07:53:34;;;;;;;15.63;7.63;;;5.20;99.90;;;;;;5066517;28;20545;-68
2024/02/02 07:56:02;;;;;;;14.70;6.70;;;5.20;99.90;;;;;;5067047;28;20443;-70
2024/02/02 07:58:31;;;;;;;12.93;6.97;;;5.30;99.90;;;;;;5067009;28;20450;-69
2024/02/02 08:00:59;;;;;;;15.07;6.83;;;5.30;99.90;;;;;;5065808;28;20535;-69
2024/02/02 08:03:28;;;;;;;16.77;7.27;;;5.30;99.90;;;;;;5066469;28;20464;-69
2024/02/02 08:05:56;;;;;;;14.80;7.00;;;5.30;99.90;;;;;;5066269;28;21096;-70
2024/02/02 08:08:25;;;;;;;16.60;8.23;;;5.40;99.90;;;;;;5066927;28;20507;-69
2024/02/02 08:10:53;;;;;;;14.20;6.40;;;5.50;99.90;;;;;;5061701;28;20565;-69
2024/02/02 08:13:22;;;;;;;13.13;6.00;;;5.60;99.90;;;;;;5061525;28;20527;-68
2024/02/02 08:15:50;;;;;;;13.60;5.87;;;5.80;99.90;;;;;;5066603;28;20977;-69
2024/02/02 08:18:18;;;;;;;14.80;6.93;;;5.80;99.90;;;;;;5066451;28;21016;-69
2024/02/02 08:20:47;;;;;;;14.63;7.50;;;5.80;99.90;;;;;;5064447;28;20565;-68
2024/02/02 08:23:15;;;;;;;16.13;7.70;;;5.70;99.90;;;;;;5067082;28;20483;-69
2024/02/02 08:25:44;;;;;;;15.37;7.67;;;5.70;99.90;;;;;;5066201;28;21218;-70
2024/02/02 08:28:12;;;;;;;13.77;6.10;;;5.70;99.90;;;;;;5066340;28;20492;-69
2024/02/02 08:30:40;;;;;;;12.40;5.60;;;5.90;99.90;;;;;;5065333;28;20915;-69
2024/02/02 08:33:08;;;;;;;13.77;6.07;;;6.10;99.90;;;;;;5065816;28;20880;-69
2024/02/02 08:35:37;;;;;;;14.73;6.40;;;6.10;99.90;;;;;;5066136;28;21056;-69
2024/02/02 08:38:08;;;;;;;14.80;7.03;;;6.10;99.90;;;;;;5066542;28;20463;-68
2024/02/02 08:40:39;;;;;;;11.57;6.17;;;6.10;99.90;;;;;;5065038;28;21279;-69
2024/02/02 08:43:11;;;;;;;20.43;7.40;;;6.20;99.90;;;;;;5065453;28;20558;-69
2024/02/02 08:46:04;;;;;;;20.40;9.30;;;6.30;99.90;;;;;;5065805;28;20572;-68
2024/02/02 08:48:40;;;;;;;16.27;9.57;;;6.30;99.90;;;;;;5066154;28;20502;-70
2024/02/02 08:51:47;;;;;;;17.17;8.30;;;6.20;99.90;;;;;;5064392;28;21013;-68
2024/02/02 08:54:45;;;;;;;13.33;7.03;;;6.20;99.90;;;;;;5064202;28;20454;-69
2024/02/02 08:57:30;;;;;;;14.97;6.97;;;6.30;99.90;;;;;;5066860;28;20983;-69
2024/02/02 09:00:04;;;;;;;14.03;6.63;;;6.40;99.90;;;;;;5066872;28;20559;-68
2024/02/02 09:03:05;;;;;;;12.80;6.30;;;6.70;99.90;;;;;;5065482;28;20475;-69
2024/02/02 09:05:51;;;;;;;15.03;6.27;;;6.70;99.90;;;;;;5066414;28;20577;-69
2024/02/02 09:08:33;;;;;;;16.57;6.87;;;6.70;99.90;;;;;;5062107;28;21043;-67
2024/02/02 09:11:18;;;;;;;13.87;5.93;;;6.80;99.90;;;;;;5066128;28;20881;-69
2024/02/02 09:13:47;;;;;;;13.57;6.67;;;6.80;99.90;;;;;;5062881;28;20471;-67
2024/02/02 09:16:16;;;;;;;11.97;6.20;;;6.90;99.90;;;;;;5063598;28;20463;-69
2024/02/02 09:18:46;;;;;;;13.57;7.00;;;7.00;99.90;;;;;;5066431;28;20513;-68
2024/02/02 09:21:18;;;;;;;14.10;6.80;;;7.00;99.90;;;;;;5065798;28;20460;-68
2024/02/02 09:23:52;;;;;;;14.53;7.13;;;7.10;99.90;;;;;;5058215;28;20503;-68
2024/02/02 09:26:36;;;;;;;18.00;9.07;;;7.10;99.90;;;;;;5060844;28;20474;-69
2024/02/02 09:29:04;;;;;;;14.30;7.50;;;7.20;99.90;;;;;;5066423;28;20468;-69
2024/02/02 09:31:36;;;;;;;14.33;8.07;;;7.30;99.90;;;;;;5066941;28;20505;-66
2024/02/02 09:34:06;;;;;;;13.87;7.23;;;7.50;99.90;;;;;;5069719;28;20467;-68
2024/02/02 09:36:35;;;;;;;13.90;7.10;;;7.60;99.90;;;;;;5070740;28;21012;-69
2024/02/02 09:39:09;;;;;;;13.30;7.00;;;7.70;99.90;;;;;;5070389;28;21311;-69
2024/02/02 09:42:12;;;;;;;13.97;7.43;;;7.90;99.90;;;;;;5069909;28;20468;-69
2024/02/02 09:44:47;;;;;;;14.30;7.53;;;7.90;99.90;;;;;;5070415;28;20475;-69
2024/02/02 09:47:48;;;;;;;16.80;8.07;;;8.00;99.90;;;;;;5070209;28;20488;-68
2024/02/02 09:50:27;;;;;;;13.40;7.07;;;8.20;99.90;;;;;;5065441;28;20477;-68
2024/02/02 09:53:23;;;;;;;12.50;7.00;;;8.20;99.90;;;;;;5070271;28;20995;-68
2024/02/02 09:56:02;;;;;;;15.63;8.23;;;8.20;99.90;;;;;;5070144;28;20501;-68
2024/02/02 09:58:37;;;;;;;15.77;8.50;;;8.30;99.90;;;;;;5069386;28;20553;-69
2024/02/02 10:01:13;;;;;;;13.97;8.57;;;8.30;99.90;;;;;;5070429;28;20566;-68
2024/02/02 10:03:55;;;;;;;15.77;9.23;;;8.30;99.90;;;;;;5068561;28;20580;-68
2024/02/02 10:06:36;;;;;;;14.57;8.63;;;8.40;99.90;;;;;;5070058;28;20585;-67
2024/02/02 10:09:27;;;;;;;14.57;8.07;;;8.50;99.90;;;;;;5069727;28;20446;-69
2024/02/02 10:12:20;;;;;;;14.17;7.47;;;8.60;99.90;;;;;;5062592;28;20454;-68
2024/02/02 10:15:15;;;;;;;15.70;9.67;;;8.60;99.90;;;;;;5059814;28;20458;-69
2024/02/02 10:18:02;;;;;;;18.90;9.70;;;8.60;99.90;;;;;;5061302;28;20455;-69
2024/02/02 10:20:38;;;;;;;18.93;9.40;;;8.60;99.90;;;;;;5067533;28;21296;-69
2024/02/02 10:23:40;;;;;;;25.23;10.30;;;8.50;99.90;;;;;;5068541;28;20524;-70
2024/02/02 10:26:28;;;;;;;43.43;20.83;;;8.50;99.90;;;;;;5056085;28;20516;-69
2024/02/02 10:29:04;;;;;;;36.50;16.07;;;8.30;99.90;;;;;;5061965;28;20548;-69
2024/02/02 10:31:51;;;;;;;22.70;11.23;;;8.30;99.90;;;;;;5067972;28;20446;-69
2024/02/02 10:34:38;;;;;;;20.13;10.40;;;8.40;99.90;;;;;;5067475;28;20504;-69
2024/02/02 10:37:19;;;;;;;15.17;6.27;;;8.70;99.90;;;;;;5068614;28;20499;-69
2024/02/02 10:40:00;;;;;;;14.67;6.33;;;9.10;99.90;;;;;;5068514;28;20470;-69
2024/02/02 10:42:42;;;;;;;11.20;6.37;;;9.40;99.90;;;;;;5067447;28;20442;-70
2024/02/02 10:45:19;;;;;;;15.23;6.60;;;9.60;99.90;;;;;;5065256;28;20449;-69
2024/02/02 10:48:07;;;;;;;13.13;6.67;;;9.90;99.90;;;;;;5069325;28;20487;-69
2024/02/02 10:50:44;;;;;;;13.27;6.77;;;10.30;99.90;;;;;;5068170;28;20494;-69
2024/02/02 10:53:21;;;;;;;15.50;7.13;;;10.70;99.90;;;;;;5068603;28;21063;-67
2024/02/02 10:56:02;;;;;;;14.33;6.53;;;10.90;99.90;;;;;;5060839;28;20433;-69
2024/02/02 10:58:40;;;;;;;14.17;6.20;;;11.30;99.90;;;;;;5068866;28;20450;-68
2024/02/02 11:01:15;;;;;;;16.93;8.67;;;11.40;99.90;;;;;;5067961;28;20979;-68
2024/02/02 11:03:52;;;;;;;14.30;7.63;;;11.70;99.90;;;;;;5068235;28;20438;-69
2024/02/02 11:06:26;;;;;;;11.30;6.73;;;12.30;99.90;;;;;;5068344;28;20552;-70
2024/02/02 11:09:09;;;;;;;13.50;6.77;;;12.90;99.90;;;;;;5068841;28;20439;-68
2024/02/02 11:11:45;;;;;;;16.93;7.37;;;13.50;99.90;;;;;;5067440;28;20874;-69
2024/02/02 11:14:21;;;;;;;14.50;7.40;;;14.10;99.90;;;;;;5068205;28;20442;-67
2024/02/02 11:16:58;;;;;;;13.23;7.23;;;14.70;99.90;;;;;;5068920;28;20516;-70
2024/02/02 11:19:41;;;;;;;11.40;5.40;;;14.70;99.90;;;;;;5068607;28;20500;-70
2024/02/02 11:22:25;;;;;;;11.70;5.87;;;14.90;99.30;;;;;;5063005;28;20469;-70
2024/02/02 11:25:04;;;;;;;12.37;6.00;;;14.50;99.30;;;;;;5061183;28;20497;-69
2024/02/02 11:27:43;;;;;;;10.83;4.70;;;13.40;99.90;;;;;;5068347;28;20497;-69
2024/02/02 11:30:25;;;;;;;8.40;2.03;;;12.60;99.90;;;;;;5067353;28;20470;-70
2024/02/02 11:33:15;;;;;;;7.43;1.90;;;11.90;99.90;;;;;;5060731;28;20550;-69
2024/02/02 11:36:01;;;;;;;9.50;2.10;;;11.40;99.90;;;;;;5066291;28;20446;-68
2024/02/02 11:38:40;;;;;;;7.43;1.40;;;11.20;99.90;;;;;;5067475;28;20438;-69
2024/02/02 11:41:15;;;;;;;8.20;1.63;;;11.00;99.90;;;;;;5066732;28;20461;-70
2024/02/02 11:43:45;;;;;;;7.90;1.53;;;10.90;99.90;;;;;;5067084;28;20431;-69
2024/02/02 11:46:14;;;;;;;7.20;1.60;;;10.90;99.90;;;;;;5066989;28;20952;-69
2024/02/02 11:48:43;;;;;;;7.60;1.77;;;11.10;99.90;;;;;;5067234;28;20447;-69
2024/02/02 11:51:13;;;;;;;7.80;1.40;;;11.20;99.90;;;;;;5066461;28;20975;-68
2024/02/02 11:53:49;;;;;;;7.10;1.50;;;11.30;98.90;;;;;;5066954;28;20454;-69
2024/02/02 11:56:30;;;;;;;7.77;2.00;;;11.30;98.10;;;;;;5066733;28;20438;-69
2024/02/02 11:59:05;;;;;;;7.43;2.07;;;11.40;97.80;;;;;;5067467;28;20551;-68
2024/02/02 12:01:47;;;;;;;7.13;1.60;;;11.30;98.90;;;;;;5066335;28;20441;-69
2024/02/02 12:04:30;;;;;;;7.00;1.60;;;11.40;98.20;;;;;;5060168;28;20479;-68
2024/02/02 12:07:15;;;;;;;6.40;1.27;;;11.50;99.00;;;;;;5062587;28;20475;-69
2024/02/02 12:09:47;;;;;;;6.90;1.40;;;11.60;97.70;;;;;;5066559;28;20470;-70
2024/02/02 12:12:22;;;;;;;7.10;1.30;;;11.60;96.50;;;;;;5063682;28;20451;-68
2024/02/02 12:14:50;;;;;;;7.13;1.70;;;11.60;98.50;;;;;;5066639;28;20465;-70
2024/02/02 12:17:21;;;;;;;6.60;1.40;;;11.70;97.60;;;;;;5066779;28;20443;-69
2024/02/02 12:19:49;;;;;;;7.17;1.27;;;11.80;97.10;;;;;;5066469;28;20552;-70
2024/02/02 12:22:21;;;;;;;6.90;1.40;;;11.90;97.30;;;;;;5062089;28;20471;-69
2024/02/02 12:24:50;;;;;;;8.20;1.40;;;12.00;96.50;;;;;;5061861;28;20497;-71
2024/02/02 12:27:17;;;;;;;7.13;1.47;;;12.00;95.10;;;;;;5062839;28;20996;-70
2024/02/02 12:29:46;;;;;;;7.60;1.40;;;12.00;95.50;;;;;;5063718;28;20482;-70
2024/02/02 12:32:14;;;;;;;6.40;1.20;;;12.00;95.30;;;;;;5063233;28;20514;-69
2024/02/02 12:34:42;;;;;;;7.00;1.33;;;12.00;94.50;;;;;;5064202;28;20447;-70
2024/02/02 12:37:10;;;;;;;6.80;1.13;;;11.90;94.90;;;;;;5065720;28;20436;-70
2024/02/02 12:39:39;;;;;;;7.10;1.47;;;11.90;93.50;;;;;;5065189;28;20451;-69
2024/02/02 12:42:08;;;;;;;7.17;1.10;;;11.80;93.70;;;;;;5063903;28;20437;-69
2024/02/02 12:44:36;;;;;;;6.40;1.00;;;11.90;94.30;;;;;;5062574;28;20538;-69
2024/02/02 12:47:06;;;;;;;9.00;1.20;;;12.10;93.40;;;;;;5064587;28;21202;-70
2024/02/02 12:49:36;;;;;;;7.33;1.13;;;12.00;93.30;;;;;;5064637;28;20456;-69
2024/02/02 12:52:06;;;;;;;6.20;1.10;;;12.10;93.20;;;;;;5063835;28;20956;-70
2024/02/02 12:54:34;;;;;;;6.20;0.90;;;12.10;91.40;;;;;;5064407;28;20450;-70
2024/02/02 12:57:05;;;;;;;6.63;1.10;;;12.00;90.80;;;;;;5064565;28;20501;-68
2024/02/02 12:59:34;;;;;;;6.83;1.20;;;12.10;92.00;;;;;;5061443;28;20505;-69
2024/02/02 13:02:02;;;;;;;6.20;0.90;;;12.10;90.70;;;;;;5063740;28;20505;-69
2024/02/02 13:04:31;;;;;;;6.43;0.90;;;12.20;90.40;;;;;;5054833;28;20666;-70
2024/02/02 13:06:59;;;;;;;8.00;1.13;;;12.10;91.40;;;;;;5061740;28;20441;-69
2024/02/02 13:09:31;;;;;;;6.40;0.97;;;12.10;91.30;;;;;;5062918;28;20455;-69
2024/02/02 13:12:00;;;;;;;7.00;1.70;;;12.00;90.10;;;;;;5063450;28;20451;-69